Time;durP1;ratioP1;P1;durP2;ratioP2;P2;SDS_P1;SDS_P2;PMS_P1;PMS_P2;Temp;Humidity;BMP_temperature;BMP_pressure;BME280_temperature;BME280_humidity;BME280_pressure;Samples;Min_cycle;Max_cycle;Signal;HPM_P1;HPM_P2
2021/05/23 00:00:38;;;;;;;1999.90;999.90;;;11.10;99.90;;;;;;5037662;28;20524;-83
2021/05/23 00:03:08;;;;;;;1999.90;999.90;;;11.10;99.90;;;;;;5038905;28;20641;-82
2021/05/23 00:05:38;;;;;;;1999.90;999.90;;;11.00;99.90;;;;;;5038496;28;20176;-82
2021/05/23 00:08:07;;;;;;;1999.90;999.90;;;11.00;99.90;;;;;;5038375;28;20239;-82
2021/05/23 00:10:38;;;;;;;1999.90;999.90;;;11.00;99.90;;;;;;5038985;28;20157;-82
2021/05/23 00:13:06;;;;;;;1999.90;999.90;;;11.00;99.90;;;;;;5038815;28;20161;-82
2021/05/23 00:15:51;;;;;;;1999.90;999.90;;;10.90;99.90;;;;;;5038159;28;20162;-82
2021/05/23 00:18:18;;;;;;;1999.90;999.90;;;10.90;99.90;;;;;;5038307;28;20193;-83
2021/05/23 00:20:44;;;;;;;1999.90;999.90;;;10.80;99.90;;;;;;5038383;28;20161;-82
2021/05/23 00:23:10;;;;;;;1999.90;999.90;;;10.80;99.90;;;;;;5037059;28;20193;-82
2021/05/23 00:25:37;;;;;;;1999.90;999.90;;;10.80;99.90;;;;;;5038187;28;20248;-82
2021/05/23 00:28:03;;;;;;;1999.90;999.90;;;10.80;99.90;;;;;;5037650;28;20196;-82
2021/05/23 00:30:29;;;;;;;1999.90;999.90;;;10.70;99.90;;;;;;5037607;28;20243;-82
2021/05/23 00:32:55;;;;;;;1999.90;999.90;;;10.70;99.90;;;;;;5038015;28;20568;-82
2021/05/23 00:35:21;;;;;;;1999.90;999.90;;;10.60;99.90;;;;;;5035855;28;20280;-82
2021/05/23 00:37:48;;;;;;;1999.90;999.90;;;10.60;99.90;;;;;;5038081;28;20231;-82
2021/05/23 00:40:14;;;;;;;1999.90;999.90;;;10.60;99.90;;;;;;5038031;28;20174;-82
2021/05/23 00:42:39;;;;;;;1999.90;999.90;;;10.60;99.90;;;;;;5035562;28;20281;-82
2021/05/23 00:45:08;;;;;;;1999.90;999.90;;;10.50;99.90;;;;;;5037709;28;20177;-82
2021/05/23 00:47:34;;;;;;;1999.90;999.90;;;10.50;99.90;;;;;;5037056;28;20322;-82
2021/05/23 00:49:59;;;;;;;1999.90;999.90;;;10.40;99.90;;;;;;5037719;28;20196;-82
2021/05/23 00:52:25;;;;;;;1999.90;999.90;;;10.40;99.90;;;;;;5037271;28;20439;-83
2021/05/23 00:54:51;;;;;;;1999.90;999.90;;;10.30;99.90;;;;;;5034723;28;20176;-83
2021/05/23 00:57:17;;;;;;;1999.90;999.90;;;10.30;99.90;;;;;;5037096;28;20926;-82
2021/05/23 00:59:42;;;;;;;1999.90;999.90;;;10.30;99.90;;;;;;5037013;28;20185;-82
2021/05/23 01:02:08;;;;;;;1999.90;999.90;;;10.40;99.90;;;;;;5037244;28;20280;-82
2021/05/23 01:04:34;;;;;;;1999.90;999.90;;;10.50;99.90;;;;;;5036902;28;20165;-82
2021/05/23 01:07:00;;;;;;;1999.90;999.90;;;10.50;99.90;;;;;;5036976;28;20229;-82
2021/05/23 01:09:26;;;;;;;1999.90;999.90;;;10.60;99.90;;;;;;5035454;28;20189;-82
2021/05/23 01:11:51;;;;;;;1999.90;999.90;;;10.60;99.90;;;;;;5036640;28;20173;-82
2021/05/23 01:14:20;;;;;;;1999.90;999.90;;;10.60;99.90;;;;;;5036795;28;20249;-83
2021/05/23 01:16:50;;;;;;;1999.90;999.90;;;10.60;99.90;;;;;;5036505;28;20173;-82
2021/05/23 01:19:30;;;;;;;1999.90;999.90;;;10.70;99.90;;;;;;5036108;28;20189;-82
2021/05/23 01:22:21;;;;;;;1999.90;999.90;;;10.70;99.90;;;;;;5036253;28;20185;-82
2021/05/23 01:25:12;;;;;;;1999.90;999.90;;;10.70;99.90;;;;;;5035092;28;20157;-82
2021/05/23 01:27:45;;;;;;;1999.90;999.90;;;10.70;99.90;;;;;;5036261;28;20216;-82
2021/05/23 01:30:14;;;;;;;1999.90;999.90;;;10.60;99.90;;;;;;5036576;28;20173;-82
2021/05/23 01:32:43;;;;;;;1999.90;999.90;;;10.70;99.90;;;;;;5035147;28;20191;-82
2021/05/23 01:35:21;;;;;;;1999.90;999.90;;;10.60;99.90;;;;;;5034909;28;20213;-83
2021/05/23 01:37:58;;;;;;;1999.90;999.90;;;10.60;99.90;;;;;;5036319;28;20184;-82
2021/05/23 01:40:26;;;;;;;1999.90;999.90;;;10.60;99.90;;;;;;5035503;28;20228;-82
2021/05/23 01:42:52;;;;;;;1999.90;999.90;;;10.60;99.90;;;;;;5035461;28;20559;-82
2021/05/23 01:45:17;;;;;;;1999.90;999.90;;;10.50;99.90;;;;;;5035286;28;20178;-82
2021/05/23 01:47:44;;;;;;;1999.90;999.90;;;10.50;99.90;;;;;;5036587;28;20193;-82
2021/05/23 01:50:10;;;;;;;1999.90;999.90;;;10.60;99.90;;;;;;5036242;28;20503;-82
2021/05/23 01:52:42;;;;;;;1999.90;999.90;;;10.60;99.90;;;;;;5035358;28;20169;-82
2021/05/23 01:55:09;;;;;;;1999.90;999.90;;;10.60;99.90;;;;;;5036135;28;20521;-83
2021/05/23 01:57:35;;;;;;;1999.90;999.90;;;10.60;99.90;;;;;;5035376;28;20668;-82
2021/05/23 02:00:01;;;;;;;1999.90;999.90;;;10.60;99.90;;;;;;5035643;28;20177;-82
2021/05/23 02:02:26;;;;;;;1999.90;999.90;;;10.60;99.90;;;;;;5035162;28;20642;-82
2021/05/23 02:04:52;;;;;;;1999.90;999.90;;;10.60;99.90;;;;;;5036239;28;20629;-82
2021/05/23 02:07:18;;;;;;;1999.90;999.90;;;10.60;99.90;;;;;;5034116;28;20656;-82
2021/05/23 02:09:43;;;;;;;1999.90;999.90;;;10.60;99.90;;;;;;5034909;28;20165;-83
2021/05/23 02:12:09;;;;;;;1999.90;999.90;;;10.70;99.90;;;;;;5036101;28;20169;-83
2021/05/23 02:14:35;;;;;;;1999.90;999.90;;;10.70;99.90;;;;;;5035736;28;20250;-82
2021/05/23 02:17:01;;;;;;;1999.90;999.90;;;10.70;99.90;;;;;;5034291;28;20180;-82
2021/05/23 02:19:26;;;;;;;1999.90;999.90;;;10.70;99.90;;;;;;5035838;28;20196;-82
2021/05/23 02:21:52;;;;;;;1999.90;999.90;;;10.70;99.90;;;;;;5035035;28;20193;-82
2021/05/23 02:24:17;;;;;;;1999.90;999.90;;;10.70;99.90;;;;;;5035040;28;20165;-82
2021/05/23 02:26:43;;;;;;;1999.90;999.90;;;10.80;99.90;;;;;;5034773;28;20172;-82
2021/05/23 02:29:10;;;;;;;1999.90;999.90;;;10.80;99.90;;;;;;5035061;28;20185;-82
2021/05/23 02:31:36;;;;;;;1999.90;999.90;;;10.90;99.90;;;;;;5034670;28;20407;-82
2021/05/23 02:34:02;;;;;;;1999.90;999.90;;;10.90;99.90;;;;;;5035901;28;20170;-82
2021/05/23 02:36:28;;;;;;;1999.90;999.90;;;11.00;99.90;;;;;;5033770;28;20204;-82
2021/05/23 02:38:54;;;;;;;1999.90;999.90;;;11.00;99.90;;;;;;5034476;28;20193;-82
2021/05/23 02:41:19;;;;;;;1999.90;999.90;;;10.90;99.90;;;;;;5034084;28;20223;-83
2021/05/23 02:43:45;;;;;;;1999.90;999.90;;;10.90;99.90;;;;;;5035291;28;20169;-83
2021/05/23 02:46:11;;;;;;;1999.90;999.90;;;10.90;99.90;;;;;;5036183;28;20174;-83
2021/05/23 02:48:36;;;;;;;1999.90;999.90;;;11.00;99.90;;;;;;5035209;28;20560;-83
2021/05/23 02:51:03;;;;;;;1999.90;999.90;;;10.90;99.90;;;;;;5034951;28;20161;-82
2021/05/23 02:53:29;;;;;;;1999.90;999.90;;;10.90;99.90;;;;;;5035199;28;20180;-83
2021/05/23 02:55:55;;;;;;;1999.90;999.90;;;10.90;99.90;;;;;;5033970;28;20559;-82
2021/05/23 02:58:20;;;;;;;1999.90;999.90;;;10.90;99.90;;;;;;5035989;28;20192;-82
2021/05/23 03:00:47;;;;;;;1999.90;999.90;;;11.00;99.90;;;;;;5035193;28;20219;-82
2021/05/23 03:03:14;;;;;;;1999.90;999.90;;;10.90;99.90;;;;;;5035343;28;20193;-83
2021/05/23 03:05:41;;;;;;;1999.90;999.90;;;10.90;99.90;;;;;;5035304;28;20161;-82
2021/05/23 03:08:07;;;;;;;1999.90;999.90;;;10.90;99.90;;;;;;5035452;28;20184;-83
2021/05/23 03:10:49;;;;;;;1999.90;999.90;;;10.90;99.90;;;;;;5035390;28;20172;-82
2021/05/23 03:13:15;;;;;;;1999.90;999.90;;;10.90;99.90;;;;;;5035717;28;20168;-82
2021/05/23 03:15:41;;;;;;;1999.90;999.90;;;10.90;99.90;;;;;;5035107;28;20169;-83
2021/05/23 03:18:08;;;;;;;1999.90;999.90;;;11.00;99.90;;;;;;5036786;28;20423;-83
2021/05/23 03:20:36;;;;;;;1999.90;999.90;;;11.00;99.90;;;;;;5039452;28;20165;-82
2021/05/23 03:23:02;;;;;;;1999.90;999.90;;;11.00;99.90;;;;;;5039257;28;20197;-83
2021/05/23 03:25:31;;;;;;;1999.90;999.90;;;11.00;99.90;;;;;;5039130;28;20187;-82
2021/05/23 03:27:58;;;;;;;1999.90;999.90;;;11.00;99.90;;;;;;5041152;28;20556;-82
2021/05/23 03:30:30;;;;;;;1999.90;999.90;;;11.10;99.90;;;;;;5040412;28;20162;-82
2021/05/23 03:32:55;;;;;;;1999.90;999.90;;;11.10;99.90;;;;;;5040941;28;20180;-82
2021/05/23 03:35:22;;;;;;;1999.90;999.90;;;11.10;99.90;;;;;;5039939;28;20177;-82
2021/05/23 03:37:48;;;;;;;1999.90;999.90;;;11.00;99.90;;;;;;5041344;28;20193;-82
2021/05/23 03:40:16;;;;;;;1999.90;999.90;;;11.00;99.90;;;;;;5039107;28;20525;-82
2021/05/23 03:42:46;;;;;;;1999.90;999.90;;;10.90;99.90;;;;;;5039391;28;20192;-82
2021/05/23 03:45:13;;;;;;;1999.90;999.90;;;10.90;99.90;;;;;;5041004;28;20233;-82
2021/05/23 03:47:39;;;;;;;1999.90;999.90;;;10.90;99.90;;;;;;5041201;28;20185;-82
2021/05/23 03:50:08;;;;;;;1999.90;999.90;;;11.00;99.90;;;;;;5041028;28;20157;-82
2021/05/23 03:52:34;;;;;;;1999.90;999.90;;;10.90;99.90;;;;;;5039976;28;20169;-82
2021/05/23 03:55:00;;;;;;;1999.90;999.90;;;11.00;99.90;;;;;;5039611;28;20216;-82
2021/05/23 03:57:25;;;;;;;1999.90;999.90;;;10.90;99.90;;;;;;5039594;28;20168;-82
2021/05/23 03:59:51;;;;;;;1999.90;999.90;;;10.90;99.90;;;;;;5039099;28;20636;-82
2021/05/23 04:02:17;;;;;;;1999.90;999.90;;;10.90;99.90;;;;;;5040836;28;20185;-82
2021/05/23 04:04:47;;;;;;;1999.90;999.90;;;11.00;99.90;;;;;;5040044;28;20168;-82
2021/05/23 04:07:16;;;;;;;1999.90;999.90;;;11.00;99.90;;;;;;5039152;28;20165;-81
2021/05/23 04:09:42;;;;;;;1999.90;999.90;;;11.00;99.90;;;;;;5038344;28;20158;-82
2021/05/23 04:12:09;;;;;;;1999.90;999.90;;;10.90;99.90;;;;;;5038244;28;20177;-81
2021/05/23 04:14:35;;;;;;;1999.90;999.90;;;10.90;99.90;;;;;;5039077;28;20487;-81
2021/05/23 04:17:00;;;;;;;1999.90;999.90;;;10.90;99.90;;;;;;5038740;28;20714;-81
2021/05/23 04:19:26;;;;;;;1999.90;999.90;;;10.90;99.90;;;;;;5036553;28;20220;-81
2021/05/23 04:21:52;;;;;;;1999.90;999.90;;;10.80;99.90;;;;;;5038319;28;20185;-81
2021/05/23 04:24:17;;;;;;;1999.90;999.90;;;10.80;99.90;;;;;;5038428;28;20168;-81
2021/05/23 04:26:43;;;;;;;1999.90;999.90;;;10.70;99.90;;;;;;5039075;28;20533;-80
2021/05/23 04:29:09;;;;;;;1999.90;999.90;;;10.70;99.90;;;;;;5040816;28;20657;-81
2021/05/23 04:31:34;;;;;;;1999.90;999.90;;;10.70;99.90;;;;;;5037410;28;20601;-81
2021/05/23 04:34:00;;;;;;;1999.90;999.90;;;10.70;99.90;;;;;;5037385;28;20169;-81
2021/05/23 04:36:26;;;;;;;1999.90;999.90;;;10.70;99.90;;;;;;5036730;28;20212;-82
2021/05/23 04:38:52;;;;;;;1999.90;999.90;;;10.60;99.90;;;;;;5037793;28;20188;-81
2021/05/23 04:41:18;;;;;;;1999.90;999.90;;;10.60;99.90;;;;;;5037743;28;20169;-81
2021/05/23 04:43:43;;;;;;;1999.90;999.90;;;10.60;99.90;;;;;;5037283;28;20181;-81
2021/05/23 04:46:09;;;;;;;1999.90;999.90;;;10.60;99.90;;;;;;5037000;28;20166;-81
2021/05/23 04:48:35;;;;;;;1999.90;999.90;;;10.60;99.90;;;;;;5035865;28;20196;-82
2021/05/23 04:51:00;;;;;;;1999.90;999.90;;;10.70;99.90;;;;;;5035344;28;20244;-81
2021/05/23 04:53:28;;;;;;;1999.90;999.90;;;10.50;99.90;;;;;;5037391;28;20656;-81
2021/05/23 04:55:54;;;;;;;1999.90;999.90;;;10.50;99.90;;;;;;5037067;28;20169;-81
2021/05/23 04:58:19;;;;;;;1999.90;999.90;;;10.60;99.90;;;;;;5037162;28;20267;-82
2021/05/23 05:00:45;;;;;;;1999.90;999.90;;;10.60;99.90;;;;;;5036883;28;20633;-81
2021/05/23 05:03:11;;;;;;;1999.90;999.90;;;10.70;99.90;;;;;;5036592;28;20535;-81
2021/05/23 05:05:36;;;;;;;1999.90;999.90;;;10.70;99.90;;;;;;5037197;28;20177;-82
2021/05/23 05:08:02;;;;;;;1999.90;999.90;;;10.70;99.90;;;;;;5037076;28;20657;-81
2021/05/23 05:10:28;;;;;;;1999.90;999.90;;;10.70;99.90;;;;;;5036971;28;20165;-81
2021/05/23 05:12:53;;;;;;;1999.90;999.90;;;10.70;99.90;;;;;;5035363;28;20409;-82
2021/05/23 05:15:19;;;;;;;1999.90;999.90;;;10.80;99.90;;;;;;5036130;28;20165;-82
2021/05/23 05:17:45;;;;;;;1999.90;999.90;;;10.80;99.90;;;;;;5037042;28;20189;-81
2021/05/23 05:20:11;;;;;;;1999.90;999.90;;;10.80;99.90;;;;;;5038355;28;20169;-81
2021/05/23 05:22:37;;;;;;;1999.90;999.90;;;10.70;99.90;;;;;;5037591;28;20268;-81
2021/05/23 05:25:05;;;;;;;1999.90;999.90;;;10.80;99.90;;;;;;5037974;28;20458;-81
2021/05/23 05:27:30;;;;;;;1999.90;999.90;;;10.80;99.90;;;;;;5037401;28;20160;-81
2021/05/23 05:29:56;;;;;;;1999.90;999.90;;;10.80;99.90;;;;;;5036599;28;20157;-81
2021/05/23 05:32:22;;;;;;;1999.90;999.90;;;10.90;99.90;;;;;;5035740;28;20173;-81
2021/05/23 05:34:48;;;;;;;1999.90;999.90;;;10.90;99.90;;;;;;5112911;23;20216;-84
2021/05/23 05:37:13;;;;;;;1999.90;999.90;;;11.00;99.90;;;;;;5036985;28;20461;-83
2021/05/23 05:39:39;;;;;;;1999.90;999.90;;;10.90;99.90;;;;;;5036327;28;20636;-82
2021/05/23 05:42:05;;;;;;;1999.90;999.90;;;10.90;99.90;;;;;;5035055;28;20188;-83
2021/05/23 05:44:31;;;;;;;1999.90;999.90;;;10.90;99.90;;;;;;5034327;28;20699;-84
2021/05/23 05:46:57;;;;;;;1999.90;999.90;;;11.00;99.90;;;;;;5035353;28;20248;-84
2021/05/23 05:49:23;;;;;;;1999.90;999.90;;;11.00;99.90;;;;;;5035618;28;20224;-84
2021/05/23 05:51:49;;;;;;;1999.90;999.90;;;11.00;99.90;;;;;;5035459;28;20173;-84
2021/05/23 05:54:15;;;;;;;1999.90;999.90;;;11.00;99.90;;;;;;5035322;28;20175;-83
2021/05/23 05:56:41;;;;;;;1999.90;999.90;;;11.10;99.90;;;;;;5035508;28;20311;-82
2021/05/23 05:59:07;;;;;;;1999.90;999.90;;;11.20;99.90;;;;;;5035308;28;20621;-83
2021/05/23 06:01:32;;;;;;;1999.90;999.90;;;11.20;99.90;;;;;;5034730;28;20449;-84
2021/05/23 06:03:58;;;;;;;1999.90;999.90;;;11.30;99.90;;;;;;5035888;28;20162;-84
2021/05/23 06:06:24;;;;;;;1999.90;999.90;;;11.30;99.90;;;;;;5036208;28;20602;-84
2021/05/23 06:08:50;;;;;;;1999.90;999.90;;;11.40;99.90;;;;;;5035933;28;20951;-84
2021/05/23 06:11:15;;;;;;;1999.90;999.90;;;11.50;99.90;;;;;;5037108;28;20955;-84
2021/05/23 06:13:41;;;;;;;1999.90;999.90;;;11.60;99.90;;;;;;5036497;28;20161;-84
2021/05/23 06:16:07;;;;;;;1999.90;999.90;;;11.60;99.90;;;;;;5035361;28;20166;-85
2021/05/23 06:18:33;;;;;;;1999.90;999.90;;;11.60;99.90;;;;;;5036969;28;20192;-85
2021/05/23 06:20:58;;;;;;;1999.90;999.90;;;11.60;99.90;;;;;;5037054;28;20157;-85
2021/05/23 06:23:24;;;;;;;1999.90;999.90;;;11.50;99.90;;;;;;5035412;28;20251;-85
2021/05/23 06:25:50;;;;;;;1999.90;999.90;;;11.60;99.90;;;;;;5036084;28;20252;-85
2021/05/23 06:28:16;;;;;;;1999.90;999.90;;;11.60;99.90;;;;;;5036323;28;20607;-84
2021/05/23 06:30:41;;;;;;;1999.90;999.90;;;11.60;99.90;;;;;;5036747;28;20181;-84
2021/05/23 06:33:07;;;;;;;1999.90;999.90;;;11.60;99.90;;;;;;5034617;28;20173;-84
2021/05/23 06:35:34;;;;;;;1999.90;999.90;;;11.60;99.90;;;;;;5035196;28;20795;-85
2021/05/23 06:37:59;;;;;;;1999.90;999.90;;;11.70;99.90;;;;;;5035792;28;20676;-85
2021/05/23 06:40:25;;;;;;;1999.90;999.90;;;11.70;99.90;;;;;;5036181;28;20175;-84
2021/05/23 06:42:51;;;;;;;1999.90;999.90;;;11.70;99.90;;;;;;5035959;28;21015;-84
2021/05/23 06:45:16;;;;;;;1999.90;999.90;;;11.60;99.90;;;;;;5035814;28;20177;-85
2021/05/23 06:47:42;;;;;;;1999.90;999.90;;;11.50;99.90;;;;;;5036506;28;20255;-85
2021/05/23 06:50:09;;;;;;;1999.90;999.90;;;11.40;99.90;;;;;;5034519;28;20166;-84
2021/05/23 06:52:35;;;;;;;1999.90;999.90;;;11.50;99.90;;;;;;5035357;28;20169;-84
2021/05/23 06:55:00;;;;;;;1999.90;999.90;;;11.60;99.90;;;;;;5034734;28;20219;-84
2021/05/23 06:57:28;;;;;;;1999.90;999.90;;;11.60;99.90;;;;;;5035549;28;20415;-84
2021/05/23 06:59:54;;;;;;;1999.90;999.90;;;11.60;99.90;;;;;;5035363;28;20184;-83
2021/05/23 07:02:20;;;;;;;1999.90;999.90;;;11.70;99.90;;;;;;5035382;28;20189;-83
2021/05/23 07:04:46;;;;;;;1999.90;999.90;;;11.80;99.90;;;;;;5035881;28;20401;-84
2021/05/23 07:07:12;;;;;;;1999.90;999.90;;;11.80;99.90;;;;;;5035929;28;20199;-83
2021/05/23 07:09:39;;;;;;;1999.90;999.90;;;11.90;99.90;;;;;;5033671;28;20256;-84
2021/05/23 07:12:05;;;;;;;1999.90;999.90;;;11.90;99.90;;;;;;5034205;28;20184;-84
2021/05/23 07:14:31;;;;;;;1999.90;999.90;;;11.90;99.90;;;;;;5035385;28;20169;-84
2021/05/23 07:16:57;;;;;;;1999.90;999.90;;;12.00;99.90;;;;;;5035276;28;20532;-83
2021/05/23 07:19:22;;;;;;;1999.90;999.90;;;12.00;99.90;;;;;;5035059;28;20196;-83
2021/05/23 07:21:48;;;;;;;1999.90;999.90;;;12.10;99.90;;;;;;5034881;28;20216;-83
2021/05/23 07:24:14;;;;;;;1999.90;999.90;;;12.10;99.90;;;;;;5036120;28;20168;-82
2021/05/23 07:26:40;;;;;;;1999.90;999.90;;;12.10;99.90;;;;;;5033696;28;20172;-82
2021/05/23 07:29:06;;;;;;;1999.90;999.90;;;12.10;99.90;;;;;;5034097;28;20280;-83
2021/05/23 07:31:32;;;;;;;1999.90;999.90;;;12.00;99.90;;;;;;5034735;28;20153;-83
2021/05/23 07:33:58;;;;;;;1999.90;999.90;;;12.10;99.90;;;;;;5034088;28;20157;-82
2021/05/23 07:36:24;;;;;;;1999.90;999.90;;;12.20;99.90;;;;;;5032836;28;20258;-83
2021/05/23 07:38:50;;;;;;;1999.90;999.90;;;12.20;99.90;;;;;;5035480;28;20197;-83
2021/05/23 07:41:15;;;;;;;1999.90;999.90;;;12.20;99.90;;;;;;5035300;28;20240;-83
2021/05/23 07:43:41;;;;;;;1999.90;999.90;;;12.20;99.90;;;;;;5035506;28;20169;-83
2021/05/23 07:46:07;;;;;;;1999.90;999.90;;;12.30;99.90;;;;;;5035004;28;20176;-83
2021/05/23 07:48:32;;;;;;;1999.90;999.90;;;12.30;99.90;;;;;;5035312;28;20185;-83
2021/05/23 07:50:59;;;;;;;1999.90;999.90;;;12.40;99.90;;;;;;5033057;28;20168;-83
2021/05/23 07:53:24;;;;;;;1999.90;999.90;;;12.30;99.90;;;;;;5034122;28;20256;-82
2021/05/23 07:55:50;;;;;;;1999.90;999.90;;;12.40;99.90;;;;;;5035299;28;20165;-82
2021/05/23 07:58:15;;;;;;;1999.90;999.90;;;12.40;99.90;;;;;;5034920;28;20228;-83
2021/05/23 08:00:41;;;;;;;1999.90;999.90;;;12.50;99.90;;;;;;5036108;28;20626;-82
2021/05/23 08:03:07;;;;;;;1999.90;999.90;;;12.50;99.90;;;;;;5034330;28;20189;-84
2021/05/23 08:05:33;;;;;;;1999.90;999.90;;;12.50;99.90;;;;;;5037937;28;20633;-83
2021/05/23 08:07:58;;;;;;;1999.90;999.90;;;12.60;99.90;;;;;;5038230;28;20656;-84
2021/05/23 08:10:24;;;;;;;1999.90;999.90;;;12.60;99.90;;;;;;5039739;28;20184;-84
2021/05/23 08:12:50;;;;;;;1999.90;999.90;;;12.70;99.90;;;;;;5038766;28;20162;-84
2021/05/23 08:15:16;;;;;;;1999.90;999.90;;;12.80;99.90;;;;;;5036965;28;20667;-84
2021/05/23 08:17:45;;;;;;;1999.90;999.90;;;12.80;99.90;;;;;;5037715;28;20256;-84
2021/05/23 08:20:11;;;;;;;1999.90;999.90;;;12.80;99.90;;;;;;5037302;28;20384;-84
2021/05/23 08:22:37;;;;;;;1999.90;999.90;;;12.90;99.90;;;;;;5038531;28;20668;-83
2021/05/23 08:25:04;;;;;;;1999.90;999.90;;;13.00;99.90;;;;;;5039014;28;20161;-84
2021/05/23 08:27:33;;;;;;;1999.90;999.90;;;13.10;99.90;;;;;;5038872;28;20180;-84
2021/05/23 08:29:59;;;;;;;1999.90;999.90;;;13.20;98.10;;;;;;5037974;28;20257;-84
2021/05/23 08:32:26;;;;;;;1999.90;999.90;;;13.30;99.90;;;;;;5039370;28;20632;-84
2021/05/23 08:34:52;;;;;;;1999.90;999.90;;;13.30;99.00;;;;;;5037757;28;20288;-82
2021/05/23 08:37:18;;;;;;;1999.90;999.90;;;13.40;96.80;;;;;;5038315;28;20176;-82
2021/05/23 08:39:44;;;;;;;1999.90;999.90;;;13.50;96.90;;;;;;5037303;28;20624;-83
2021/05/23 08:42:10;;;;;;;1999.90;999.90;;;13.50;94.90;;;;;;5036622;28;20197;-83
2021/05/23 08:44:37;;;;;;;1999.90;999.90;;;13.50;95.80;;;;;;5036695;28;20416;-84
2021/05/23 08:47:03;;;;;;;1999.90;999.90;;;13.50;95.30;;;;;;5037489;28;20168;-83
2021/05/23 08:49:31;;;;;;;1999.90;999.90;;;13.60;93.90;;;;;;5036956;28;20232;-82
2021/05/23 08:51:57;;;;;;;1999.90;999.90;;;13.70;91.60;;;;;;5036532;28;20201;-83
2021/05/23 08:54:23;;;;;;;1999.90;999.90;;;13.70;89.00;;;;;;5037086;28;20172;-83
2021/05/23 08:56:50;;;;;;;1999.90;999.90;;;13.70;92.50;;;;;;5038435;28;20161;-84
2021/05/23 08:59:17;;;;;;;1999.90;999.90;;;13.80;90.60;;;;;;5038043;28;20185;-84
2021/05/23 09:01:43;;;;;;;1999.90;999.90;;;13.90;91.70;;;;;;5036755;28;20200;-84
2021/05/23 09:04:18;;;;;;;1999.90;999.90;;;14.00;91.20;;;;;;5037897;28;20525;-84
2021/05/23 09:06:44;;;;;;;1999.90;999.90;;;14.10;92.60;;;;;;5039255;28;20153;-85
2021/05/23 09:09:15;;;;;;;1999.90;999.90;;;14.00;82.20;;;;;;5038357;28;20181;-84
2021/05/23 09:12:01;;;;;;;1999.90;999.90;;;14.00;83.50;;;;;;5038120;28;20568;-84
2021/05/23 09:14:35;;;;;;;1999.90;999.90;;;14.10;91.90;;;;;;5038616;28;20153;-85
2021/05/23 09:17:01;;;;;;;1999.90;999.90;;;14.40;92.10;;;;;;5036740;28;20168;-85
2021/05/23 09:19:27;;;;;;;1999.90;999.90;;;14.50;79.60;;;;;;5037391;28;20197;-85
2021/05/23 09:21:53;;;;;;;1999.90;999.90;;;14.70;79.60;;;;;;5036626;28;20498;-84
2021/05/23 09:24:19;;;;;;;1999.90;999.90;;;14.80;73.30;;;;;;5037882;28;20291;-85
2021/05/23 09:26:48;;;;;;;1999.90;999.90;;;14.90;66.20;;;;;;5039399;28;20411;-85
2021/05/23 09:29:16;;;;;;;1999.90;999.90;;;14.90;64.30;;;;;;5039771;28;20345;-86
2021/05/23 09:31:45;;;;;;;1999.90;999.90;;;15.00;64.40;;;;;;5039141;28;20412;-85
2021/05/23 09:34:22;;;;;;;1999.90;999.90;;;15.10;59.30;;;;;;5038501;28;20411;-85
2021/05/23 09:36:49;;;;;;;1999.90;999.90;;;15.10;60.50;;;;;;5038893;28;20419;-85
2021/05/23 09:39:15;;;;;;;1999.90;999.90;;;15.20;42.80;;;;;;5039519;28;20981;-85
2021/05/23 09:41:41;;;;;;;1999.90;999.90;;;15.20;38.30;;;;;;5039735;28;20451;-86
2021/05/23 09:44:12;;;;;;;1999.90;999.90;;;15.20;34.40;;;;;;5038831;28;20461;-85
2021/05/23 09:46:54;;;;;;;1999.90;999.90;;;15.20;33.80;;;;;;5038524;28;20404;-84
2021/05/23 09:49:20;;;;;;;1999.90;999.90;;;15.20;37.60;;;;;;5039745;28;20416;-85
2021/05/23 09:51:56;;;;;;;1999.90;999.90;;;15.20;39.40;;;;;;5043019;28;20440;-85
2021/05/23 09:54:25;;;;;;;1999.90;999.90;;;15.40;45.70;;;;;;5044306;28;20384;-85
2021/05/23 09:56:51;;;;;;;1999.90;999.90;;;15.60;48.20;;;;;;5041383;28;20399;-84
2021/05/23 09:59:22;;;;;;;1999.90;999.90;;;15.60;36.90;;;;;;5040324;28;20424;-85
2021/05/23 10:01:49;;;;;;;1999.90;999.90;;;15.60;42.90;;;;;;5042494;28;20470;-85
2021/05/23 10:04:23;;;;;;;1999.90;999.90;;;15.90;54.20;;;;;;5039859;28;20403;-85
2021/05/23 10:06:59;;;;;;;1999.90;999.90;;;16.10;30.90;;;;;;5041335;28;20404;-85
2021/05/23 10:09:27;;;;;;;1999.90;999.90;;;16.10;23.90;;;;;;5041500;28;20418;-85
2021/05/23 10:11:53;;;;;;;1999.90;999.90;;;15.90;26.60;;;;;;5042323;28;20491;-86
2021/05/23 10:14:18;;;;;;;1999.90;999.90;;;16.10;31.10;;;;;;5043581;28;20408;-85
2021/05/23 10:16:49;;;;;;;1999.90;999.90;;;16.30;29.30;;;;;;5042267;28;20461;-85
2021/05/23 10:19:24;;;;;;;1999.90;999.90;;;16.20;26.70;;;;;;5041630;28;20804;-86
2021/05/23 10:21:51;;;;;;;1999.90;999.90;;;16.00;26.60;;;;;;5041032;28;20431;-85
2021/05/23 10:24:32;;;;;;;1999.90;999.90;;;15.90;28.90;;;;;;5039306;28;20404;-85
2021/05/23 10:27:03;;;;;;;1999.90;999.90;;;15.80;29.30;;;;;;5040802;28;20384;-85
2021/05/23 10:29:32;;;;;;;1999.90;999.90;;;16.00;35.80;;;;;;5039977;28;20428;-85
2021/05/23 10:32:06;;;;;;;1999.90;999.90;;;16.10;34.20;;;;;;5038334;28;20433;-84
2021/05/23 10:34:42;;;;;;;1999.90;999.90;;;16.30;34.70;;;;;;5038016;28;20506;-83
2021/05/23 10:37:08;;;;;;;1999.90;999.90;;;16.60;37.50;;;;;;5037342;28;20457;-85
2021/05/23 10:39:42;;;;;;;1999.90;999.90;;;16.90;20.30;;;;;;5042383;28;20413;-86
2021/05/23 10:42:13;;;;;;;1999.90;999.90;;;17.20;25.90;;;;;;5041799;28;20471;-86
2021/05/23 10:44:44;;;;;;;1999.90;999.90;;;17.40;23.50;;;;;;5039627;28;20444;-85
2021/05/23 10:47:16;;;;;;;1999.90;999.90;;;17.10;14.80;;;;;;5038027;28;20394;-85
2021/05/23 10:50:08;;;;;;;1999.90;999.90;;;16.70;12.20;;;;;;5039362;28;20396;-86
2021/05/23 10:52:37;;;;;;;1999.90;999.90;;;16.40;15.10;;;;;;5039223;28;20404;-85
2021/05/23 10:55:15;;;;;;;1999.90;999.90;;;16.20;20.40;;;;;;5037344;28;20405;-84
2021/05/23 10:57:44;;;;;;;1999.90;999.90;;;16.30;20.90;;;;;;5036090;28;20462;-84
2021/05/23 11:00:26;;;;;;;1999.90;999.90;;;16.50;23.30;;;;;;5036000;28;20410;-84
2021/05/23 11:02:56;;;;;;;1999.90;999.90;;;16.90;29.70;;;;;;5035857;28;20443;-84
2021/05/23 11:05:30;;;;;;;1999.90;999.90;;;16.80;15.70;;;;;;5034793;28;20404;-84
2021/05/23 11:08:01;;;;;;;1999.90;999.90;;;16.90;14.70;;;;;;5036342;28;20937;-85
2021/05/23 11:10:43;;;;;;;1999.90;999.90;;;17.00;14.20;;;;;;5036756;28;20406;-84
2021/05/23 11:13:13;;;;;;;1999.90;999.90;;;17.10;16.90;;;;;;5036059;28;20427;-84
2021/05/23 11:15:42;;;;;;;1999.90;999.90;;;17.00;13.90;;;;;;5036814;28;20404;-85
2021/05/23 11:18:08;;;;;;;1999.90;999.90;;;17.00;16.60;;;;;;5036142;28;20461;-84
2021/05/23 11:20:34;;;;;;;1999.90;999.90;;;16.90;15.80;;;;;;5036095;28;20476;-84
2021/05/23 11:23:04;;;;;;;1999.90;999.90;;;16.80;10.70;;;;;;5036921;28;20442;-83
2021/05/23 11:25:30;;;;;;;1999.90;999.90;;;17.00;15.80;;;;;;5035598;28;20403;-84
2021/05/23 11:27:58;;;;;;;1999.90;999.90;;;17.30;14.00;;;;;;5036703;28;20450;-84
2021/05/23 11:30:25;;;;;;;1999.90;999.90;;;17.20;7.00;;;;;;5037336;28;20421;-85
2021/05/23 11:33:02;;;;;;;1999.90;999.90;;;17.10;9.30;;;;;;5038151;28;20448;-86
2021/05/23 11:35:29;;;;;;;1999.90;999.90;;;16.70;7.40;;;;;;5108390;22;20980;-81
2021/05/23 11:37:56;;;;;;;1999.90;999.90;;;16.50;5.60;;;;;;5036920;28;20768;-81
2021/05/23 11:40:23;;;;;;;1999.90;999.90;;;16.40;3.90;;;;;;5040767;28;20396;-82
2021/05/23 11:42:49;;;;;;;1999.90;999.90;;;16.10;4.40;;;;;;5040906;28;20440;-82
2021/05/23 11:45:23;;;;;;;1999.90;999.90;;;16.10;7.20;;;;;;5041210;28;20413;-81
2021/05/23 11:47:53;;;;;;;1999.90;999.90;;;16.20;8.50;;;;;;5040496;28;20781;-81
2021/05/23 11:50:28;;;;;;;1999.90;999.90;;;16.50;10.90;;;;;;5040553;28;20381;-81
2021/05/23 11:52:58;;;;;;;1999.90;999.90;;;16.90;15.30;;;;;;5040558;28;20833;-82
2021/05/23 11:55:29;;;;;;;1999.90;999.90;;;17.10;12.00;;;;;;5040941;28;20412;-82
2021/05/23 11:58:14;;;;;;;1999.90;999.90;;;17.20;13.80;;;;;;5039642;28;20445;-81
2021/05/23 12:00:40;;;;;;;1999.90;999.90;;;17.30;10.60;;;;;;5040239;28;20413;-82